sensor_id;sensor_type;location;lat;lon;timestamp;pressure;altitude;pressure_sealevel;temperature;humidity
46942;BME280;32676;52.630;4.896;2023-02-03T00:02:02;103000.50;;;8.57;84.30
46942;BME280;32676;52.630;4.896;2023-02-03T00:04:29;102999.63;;;8.58;84.36
46942;BME280;32676;52.630;4.896;2023-02-03T00:06:55;102997.88;;;8.57;84.27
46942;BME280;32676;52.630;4.896;2023-02-03T00:09:22;103005.75;;;8.60;84.17
46942;BME280;32676;52.630;4.896;2023-02-03T00:11:48;102997.88;;;8.60;84.23
46942;BME280;32676;52.630;4.896;2023-02-03T00:14:15;102998.78;;;8.59;84.00
46942;BME280;32676;52.630;4.896;2023-02-03T00:16:41;103004.00;;;8.59;83.91
46942;BME280;32676;52.630;4.896;2023-02-03T00:19:09;103003.13;;;8.60;83.81
46942;BME280;32676;52.630;4.896;2023-02-03T00:21:36;103004.03;;;8.62;83.80
46942;BME280;32676;52.630;4.896;2023-02-03T00:24:02;103004.91;;;8.61;83.64
46942;BME280;32676;52.630;4.896;2023-02-03T00:26:29;103014.50;;;8.62;83.45
46942;BME280;32676;52.630;4.896;2023-02-03T00:28:58;103019.75;;;8.62;83.43
46942;BME280;32676;52.630;4.896;2023-02-03T00:31:24;103022.41;;;8.65;83.28
46942;BME280;32676;52.630;4.896;2023-02-03T00:33:55;103032.03;;;8.66;83.18
46942;BME280;32676;52.630;4.896;2023-02-03T00:36:24;103034.66;;;8.66;83.13
46942;BME280;32676;52.630;4.896;2023-02-03T00:38:51;103029.44;;;8.66;82.89
46942;BME280;32676;52.630;4.896;2023-02-03T00:41:18;103025.88;;;8.64;82.77
46942;BME280;32676;52.630;4.896;2023-02-03T00:43:45;103023.28;;;8.62;82.77
46942;BME280;32676;52.630;4.896;2023-02-03T00:46:12;103018.84;;;8.60;82.88
46942;BME280;32676;52.630;4.896;2023-02-03T00:48:39;103029.44;;;8.66;82.72
46942;BME280;32676;52.630;4.896;2023-02-03T00:51:05;103033.78;;;8.67;82.62
46942;BME280;32676;52.630;4.896;2023-02-03T00:53:34;103039.91;;;8.69;82.62
46942;BME280;32676;52.630;4.896;2023-02-03T00:56:00;103041.69;;;8.70;82.30
46942;BME280;32676;52.630;4.896;2023-02-03T00:58:27;103051.28;;;8.71;82.19
46942;BME280;32676;52.630;4.896;2023-02-03T01:00:54;103046.03;;;8.68;82.09
46942;BME280;32676;52.630;4.896;2023-02-03T01:03:21;103057.47;;;8.73;82.07
46942;BME280;32676;52.630;4.896;2023-02-03T01:05:47;103036.41;;;8.67;81.98
46942;BME280;32676;52.630;4.896;2023-02-03T01:08:14;103064.44;;;8.74;81.98
46942;BME280;32676;52.630;4.896;2023-02-03T01:10:42;103063.59;;;8.75;81.60
46942;BME280;32676;52.630;4.896;2023-02-03T01:13:08;103066.22;;;8.75;81.68
46942;BME280;32676;52.630;4.896;2023-02-03T01:15:35;103064.44;;;8.74;81.54
46942;BME280;32676;52.630;4.896;2023-02-03T01:18:01;103067.97;;;8.76;81.59
46942;BME280;32676;52.630;4.896;2023-02-03T01:20:28;103067.97;;;8.76;81.62
46942;BME280;32676;52.630;4.896;2023-02-03T01:22:54;103056.56;;;8.70;81.60
46942;BME280;32676;52.630;4.896;2023-02-03T01:25:21;103064.50;;;8.77;81.48
46942;BME280;32676;52.630;4.896;2023-02-03T01:27:49;103064.50;;;8.77;81.52
46942;BME280;32676;52.630;4.896;2023-02-03T01:30:16;103075.84;;;8.78;81.54
46942;BME280;32676;52.630;4.896;2023-02-03T01:32:42;103066.22;;;8.75;81.52
46942;BME280;32676;52.630;4.896;2023-02-03T01:35:09;103065.38;;;8.78;81.47
46942;BME280;32676;52.630;4.896;2023-02-03T01:37:35;103074.97;;;8.77;81.41
46942;BME280;32676;52.630;4.896;2023-02-03T01:40:02;103071.47;;;8.78;81.59
46942;BME280;32676;52.630;4.896;2023-02-03T01:42:31;103058.25;;;8.69;81.45
46942;BME280;32676;52.630;4.896;2023-02-03T01:44:59;103060.97;;;8.75;81.38
46942;BME280;32676;52.630;4.896;2023-02-03T01:47:30;103059.22;;;8.74;81.54
46942;BME280;32676;52.630;4.896;2023-02-03T01:50:03;103068.88;;;8.77;81.43
46942;BME280;32676;52.630;4.896;2023-02-03T01:52:32;103066.25;;;8.77;81.48
46942;BME280;32676;52.630;4.896;2023-02-03T01:55:01;103064.44;;;8.74;81.43
46942;BME280;32676;52.630;4.896;2023-02-03T01:57:31;103061.00;;;8.78;81.36
46942;BME280;32676;52.630;4.896;2023-02-03T02:00:03;103063.63;;;8.77;81.43
46942;BME280;32676;52.630;4.896;2023-02-03T02:02:31;103061.00;;;8.78;81.28
46942;BME280;32676;52.630;4.896;2023-02-03T02:05:02;103064.50;;;8.77;81.45
46942;BME280;32676;52.630;4.896;2023-02-03T02:07:30;103061.91;;;8.79;81.25
46942;BME280;32676;52.630;4.896;2023-02-03T02:09:58;103062.72;;;8.76;81.33
46942;BME280;32676;52.630;4.896;2023-02-03T02:12:26;103071.47;;;8.78;81.25
46942;BME280;32676;52.630;4.896;2023-02-03T02:14:53;103062.72;;;8.76;81.21
46942;BME280;32676;52.630;4.896;2023-02-03T02:17:34;103064.50;;;8.77;81.28
46942;BME280;32676;52.630;4.896;2023-02-03T02:20:23;103057.47;;;8.76;81.39
46942;BME280;32676;52.630;4.896;2023-02-03T02:23:16;103040.81;;;8.71;81.22
46942;BME280;32676;52.630;4.896;2023-02-03T02:26:15;103043.47;;;8.74;81.42
46942;BME280;32676;52.630;4.896;2023-02-03T02:29:06;103046.09;;;8.74;81.49
46942;BME280;32676;52.630;4.896;2023-02-03T02:31:56;103047.88;;;8.75;81.48
46942;BME280;32676;52.630;4.896;2023-02-03T02:34:35;103050.50;;;8.75;81.32
46942;BME280;32676;52.630;4.896;2023-02-03T02:37:06;103042.59;;;8.74;81.53
46942;BME280;32676;52.630;4.896;2023-02-03T02:39:44;103040.84;;;8.73;81.64
46942;BME280;32676;52.630;4.896;2023-02-03T02:42:15;103033.84;;;8.72;81.75
46942;BME280;32676;52.630;4.896;2023-02-03T02:44:50;103042.59;;;8.74;81.96
46942;BME280;32676;52.630;4.896;2023-02-03T02:47:20;103039.97;;;8.72;81.94
46942;BME280;32676;52.630;4.896;2023-02-03T02:49:53;103020.69;;;8.67;81.94
46942;BME280;32676;52.630;4.896;2023-02-03T02:52:23;103029.44;;;8.69;81.98
46942;BME280;32676;52.630;4.896;2023-02-03T02:54:53;103022.44;;;8.68;81.92
46942;BME280;32676;52.630;4.896;2023-02-03T02:57:23;103027.72;;;8.71;82.03
46942;BME280;32676;52.630;4.896;2023-02-03T02:59:52;103031.22;;;8.70;82.02
46942;BME280;32676;52.630;4.896;2023-02-03T03:02:20;103018.09;;;8.69;81.95
46942;BME280;32676;52.630;4.896;2023-02-03T03:04:48;103012.78;;;8.65;81.95
46942;BME280;32676;52.630;4.896;2023-02-03T03:07:17;103011.97;;;8.68;82.01
46942;BME280;32676;52.630;4.896;2023-02-03T03:09:48;103011.06;;;8.68;82.13
46942;BME280;32676;52.630;4.896;2023-02-03T03:12:19;103011.94;;;8.65;82.15
46942;BME280;32676;52.630;4.896;2023-02-03T03:14:49;103019.84;;;8.68;82.21
46942;BME280;32676;52.630;4.896;2023-02-03T03:17:23;103017.22;;;8.68;82.22
46942;BME280;32676;52.630;4.896;2023-02-03T03:19:54;103023.34;;;8.70;82.28
46942;BME280;32676;52.630;4.896;2023-02-03T03:22:24;103012.81;;;8.67;82.27
46942;BME280;32676;52.630;4.896;2023-02-03T03:24:56;103009.31;;;8.67;82.28
46942;BME280;32676;52.630;4.896;2023-02-03T03:27:29;102991.81;;;8.64;82.39
46942;BME280;32676;52.630;4.896;2023-02-03T03:29:59;102990.06;;;8.63;82.32
46942;BME280;32676;52.630;4.896;2023-02-03T03:32:28;102985.69;;;8.60;82.48
46942;BME280;32676;52.630;4.896;2023-02-03T03:34:57;102994.44;;;8.64;82.55
46942;BME280;32676;52.630;4.896;2023-02-03T03:37:31;102982.22;;;8.63;82.47
46942;BME280;32676;52.630;4.896;2023-02-03T03:40:04;102986.53;;;8.59;82.66
46942;BME280;32676;52.630;4.896;2023-02-03T03:42:36;102983.97;;;8.62;82.65
46942;BME280;32676;52.630;4.896;2023-02-03T03:45:09;102978.69;;;8.61;82.72
46942;BME280;32676;52.630;4.896;2023-02-03T03:47:41;102982.22;;;8.63;82.54
46942;BME280;32676;52.630;4.896;2023-02-03T03:50:13;102987.44;;;8.63;82.51
46942;BME280;32676;52.630;4.896;2023-02-03T03:52:42;102985.69;;;8.62;82.54
46942;BME280;32676;52.630;4.896;2023-02-03T03:55:12;103001.44;;;8.65;82.42
46942;BME280;32676;52.630;4.896;2023-02-03T03:57:43;102989.19;;;8.64;82.32
46942;BME280;32676;52.630;4.896;2023-02-03T04:00:14;102993.59;;;8.65;82.39
46942;BME280;32676;52.630;4.896;2023-02-03T04:02:49;103007.56;;;8.65;82.17
46942;BME280;32676;52.630;4.896;2023-02-03T04:05:17;103006.72;;;8.68;82.06
46942;BME280;32676;52.630;4.896;2023-02-03T04:07:45;103004.09;;;8.68;82.09
46942;BME280;32676;52.630;4.896;2023-02-03T04:10:17;102997.09;;;8.67;82.11
46942;BME280;32676;52.630;4.896;2023-02-03T04:12:47;102999.72;;;8.67;82.05
46942;BME280;32676;52.630;4.896;2023-02-03T04:15:13;102983.94;;;8.64;82.20
46942;BME280;32676;52.630;4.896;2023-02-03T04:17:39;102982.22;;;8.63;82.17
46942;BME280;32676;52.630;4.896;2023-02-03T04:20:08;102974.31;;;8.61;82.23
46942;BME280;32676;52.630;4.896;2023-02-03T04:22:35;102960.25;;;8.55;82.10
46942;BME280;32676;52.630;4.896;2023-02-03T04:25:02;102955.94;;;8.57;82.38
46942;BME280;32676;52.630;4.896;2023-02-03T04:27:28;102948.91;;;8.53;82.51
46942;BME280;32676;52.630;4.896;2023-02-03T04:29:55;102941.03;;;8.53;82.44
46942;BME280;32676;52.630;4.896;2023-02-03T04:32:21;102929.66;;;8.51;82.53
46942;BME280;32676;52.630;4.896;2023-02-03T04:34:48;102934.91;;;8.51;82.58
46942;BME280;32676;52.630;4.896;2023-02-03T04:37:16;102921.75;;;8.48;82.72
46942;BME280;32676;52.630;4.896;2023-02-03T04:39:42;102921.75;;;8.48;82.82
46942;BME280;32676;52.630;4.896;2023-02-03T04:42:09;102922.69;;;8.50;82.88
46942;BME280;32676;52.630;4.896;2023-02-03T04:44:35;102922.66;;;8.48;82.89
46942;BME280;32676;52.630;4.896;2023-02-03T04:47:02;102908.66;;;8.44;82.93
46942;BME280;32676;52.630;4.896;2023-02-03T04:49:29;102881.44;;;8.36;82.91
46942;BME280;32676;52.630;4.896;2023-02-03T04:51:55;102882.34;;;8.38;83.12
46942;BME280;32676;52.630;4.896;2023-02-03T04:54:23;102884.13;;;8.39;83.12
46942;BME280;32676;52.630;4.896;2023-02-03T04:56:50;102879.72;;;8.38;83.16
46942;BME280;32676;52.630;4.896;2023-02-03T04:59:16;102883.25;;;8.40;83.11
46942;BME280;32676;52.630;4.896;2023-02-03T05:01:43;102887.63;;;8.41;82.98
46942;BME280;32676;52.630;4.896;2023-02-03T05:04:09;102894.66;;;8.42;83.00
46942;BME280;32676;52.630;4.896;2023-02-03T05:06:36;102881.50;;;8.41;83.04
46942;BME280;32676;52.630;4.896;2023-02-03T05:09:02;102884.06;;;8.36;82.91
46942;BME280;32676;52.630;4.896;2023-02-03T05:11:30;102889.44;;;8.42;82.92
46942;BME280;32676;52.630;4.896;2023-02-03T05:13:57;102886.75;;;8.41;82.74
46942;BME280;32676;52.630;4.896;2023-02-03T05:16:23;102892.84;;;8.41;82.87
46942;BME280;32676;52.630;4.896;2023-02-03T05:18:50;102899.91;;;8.42;83.06
46942;BME280;32676;52.630;4.896;2023-02-03T05:21:17;102880.59;;;8.37;82.84
46942;BME280;32676;52.630;4.896;2023-02-03T05:23:43;102884.19;;;8.42;82.75
46942;BME280;32676;52.630;4.896;2023-02-03T05:26:10;102877.13;;;8.41;82.92
46942;BME280;32676;52.630;4.896;2023-02-03T05:28:37;102872.75;;;8.39;82.99
46942;BME280;32676;52.630;4.896;2023-02-03T05:31:04;102871.00;;;8.38;83.00
46942;BME280;32676;52.630;4.896;2023-02-03T05:33:30;102867.53;;;8.39;83.06
46942;BME280;32676;52.630;4.896;2023-02-03T05:35:57;102864.00;;;8.37;83.00
46942;BME280;32676;52.630;4.896;2023-02-03T05:38:23;102845.63;;;8.32;83.07
46942;BME280;32676;52.630;4.896;2023-02-03T05:40:51;102836.91;;;8.33;83.25
46942;BME280;32676;52.630;4.896;2023-02-03T05:43:36;102840.38;;;8.32;83.37
46942;BME280;32676;52.630;4.896;2023-02-03T05:46:05;102846.47;;;8.31;83.58
46942;BME280;32676;52.630;4.896;2023-02-03T05:48:32;102832.50;;;8.31;83.34
46942;BME280;32676;52.630;4.896;2023-02-03T05:50:59;102838.63;;;8.31;83.66
46942;BME280;32676;52.630;4.896;2023-02-03T05:53:26;102829.84;;;8.26;83.55
46942;BME280;32676;52.630;4.896;2023-02-03T05:55:53;102838.63;;;8.31;83.66
46942;BME280;32676;52.630;4.896;2023-02-03T05:58:20;102834.25;;;8.30;83.64
46942;BME280;32676;52.630;4.896;2023-02-03T06:00:46;102824.63;;;8.26;83.71
46942;BME280;32676;52.630;4.896;2023-02-03T06:03:14;102836.88;;;8.30;83.63
46942;BME280;32676;52.630;4.896;2023-02-03T06:05:41;102836.88;;;8.30;83.63
46942;BME280;32676;52.630;4.896;2023-02-03T06:08:08;102835.09;;;8.29;83.60
46942;BME280;32676;52.630;4.896;2023-02-03T06:10:35;102838.63;;;8.31;83.57
46942;BME280;32676;52.630;4.896;2023-02-03T06:13:08;102846.50;;;8.33;83.68
46942;BME280;32676;52.630;4.896;2023-02-03T06:15:35;102852.63;;;8.35;83.59
46942;BME280;32676;52.630;4.896;2023-02-03T06:18:01;102870.13;;;8.37;83.23
46942;BME280;32676;52.630;4.896;2023-02-03T06:20:29;102873.63;;;8.39;83.41
46942;BME280;32676;52.630;4.896;2023-02-03T06:22:56;102898.16;;;8.43;83.33
46942;BME280;32676;52.630;4.896;2023-02-03T06:25:22;102898.16;;;8.44;83.29
46942;BME280;32676;52.630;4.896;2023-02-03T06:27:49;102904.31;;;8.47;83.17
46942;BME280;32676;52.630;4.896;2023-02-03T06:30:16;102910.38;;;8.45;83.10
46942;BME280;32676;52.630;4.896;2023-02-03T06:32:44;102920.06;;;8.50;83.13
46942;BME280;32676;52.630;4.896;2023-02-03T06:35:11;102909.53;;;8.47;83.03
46942;BME280;32676;52.630;4.896;2023-02-03T06:37:39;102920.94;;;8.50;82.94
46942;BME280;32676;52.630;4.896;2023-02-03T06:40:06;102918.31;;;8.50;83.01
46942;BME280;32676;52.630;4.896;2023-02-03T06:42:33;102918.28;;;8.47;82.74
46942;BME280;32676;52.630;4.896;2023-02-03T06:44:59;102920.06;;;8.50;82.77
46942;BME280;32676;52.630;4.896;2023-02-03T06:47:26;102927.94;;;8.53;82.80
46942;BME280;32676;52.630;4.896;2023-02-03T06:49:53;102917.44;;;8.50;82.73
46942;BME280;32676;52.630;4.896;2023-02-03T06:52:19;102928.84;;;8.53;82.80
46942;BME280;32676;52.630;4.896;2023-02-03T06:54:47;102926.19;;;8.52;82.84
46942;BME280;32676;52.630;4.896;2023-02-03T06:57:14;102920.94;;;8.52;82.70
46942;BME280;32676;52.630;4.896;2023-02-03T06:59:40;102919.19;;;8.51;82.79
46942;BME280;32676;52.630;4.896;2023-02-03T07:02:10;102920.06;;;8.51;82.74
46942;BME280;32676;52.630;4.896;2023-02-03T07:04:37;102913.91;;;8.49;82.83
46942;BME280;32676;52.630;4.896;2023-02-03T07:07:04;102913.91;;;8.48;82.99
46942;BME280;32676;52.630;4.896;2023-02-03T07:09:30;102901.63;;;8.43;82.94
46942;BME280;32676;52.630;4.896;2023-02-03T07:11:58;102901.69;;;8.47;83.02
46942;BME280;32676;52.630;4.896;2023-02-03T07:14:25;102912.19;;;8.50;83.01
46942;BME280;32676;52.630;4.896;2023-02-03T07:16:51;102917.44;;;8.50;83.09
46942;BME280;32676;52.630;4.896;2023-02-03T07:19:18;102923.59;;;8.53;82.97
46942;BME280;32676;52.630;4.896;2023-02-03T07:21:45;102920.94;;;8.52;83.25
46942;BME280;32676;52.630;4.896;2023-02-03T07:24:11;102912.19;;;8.48;83.07
46942;BME280;32676;52.630;4.896;2023-02-03T07:26:38;102912.19;;;8.50;83.27
46942;BME280;32676;52.630;4.896;2023-02-03T07:29:06;102917.44;;;8.50;83.27
46942;BME280;32676;52.630;4.896;2023-02-03T07:31:32;102919.19;;;8.51;83.23
46942;BME280;32676;52.630;4.896;2023-02-03T07:33:59;102922.69;;;8.53;83.30
46942;BME280;32676;52.630;4.896;2023-02-03T07:36:27;102934.06;;;8.55;83.35
46942;BME280;32676;52.630;4.896;2023-02-03T07:38:54;102934.09;;;8.56;83.49
46942;BME280;32676;52.630;4.896;2023-02-03T07:41:20;102941.09;;;8.57;83.43
46942;BME280;32676;52.630;4.896;2023-02-03T07:43:47;102945.47;;;8.57;83.59
46942;BME280;32676;52.630;4.896;2023-02-03T07:46:15;102941.06;;;8.56;83.62
46942;BME280;32676;52.630;4.896;2023-02-03T07:48:41;102956.84;;;8.60;83.48
46942;BME280;32676;52.630;4.896;2023-02-03T07:51:08;102958.59;;;8.61;83.64
46942;BME280;32676;52.630;4.896;2023-02-03T07:53:35;102954.22;;;8.59;83.40
46942;BME280;32676;52.630;4.896;2023-02-03T07:56:02;102959.47;;;8.59;83.63
46942;BME280;32676;52.630;4.896;2023-02-03T07:58:29;102960.38;;;8.62;83.67
46942;BME280;32676;52.630;4.896;2023-02-03T08:00:57;102964.72;;;8.62;83.43
46942;BME280;32676;52.630;4.896;2023-02-03T08:03:25;102954.22;;;8.62;83.62
46942;BME280;32676;52.630;4.896;2023-02-03T08:05:51;102951.59;;;8.59;83.67
46942;BME280;32676;52.630;4.896;2023-02-03T08:08:18;102956.84;;;8.60;83.79
46942;BME280;32676;52.630;4.896;2023-02-03T08:10:44;102967.31;;;8.62;83.83
46942;BME280;32676;52.630;4.896;2023-02-03T08:13:11;102960.38;;;8.62;83.98
46942;BME280;32676;52.630;4.896;2023-02-03T08:15:37;102966.47;;;8.63;83.85
46942;BME280;32676;52.630;4.896;2023-02-03T08:18:04;102973.47;;;8.64;83.95
46942;BME280;32676;52.630;4.896;2023-02-03T08:20:34;102983.13;;;8.68;83.78
46942;BME280;32676;52.630;4.896;2023-02-03T08:23:00;102991.00;;;8.68;83.84
46942;BME280;32676;52.630;4.896;2023-02-03T08:25:27;102998.88;;;8.71;83.91
46942;BME280;32676;52.630;4.896;2023-02-03T08:27:53;103010.28;;;8.73;83.78
46942;BME280;32676;52.630;4.896;2023-02-03T08:30:22;103028.63;;;8.76;83.74
46942;BME280;32676;52.630;4.896;2023-02-03T08:32:48;103029.53;;;8.78;83.79
46942;BME280;32676;52.630;4.896;2023-02-03T08:35:15;103034.78;;;8.78;83.63
46942;BME280;32676;52.630;4.896;2023-02-03T08:37:43;103041.84;;;8.82;83.87
46942;BME280;32676;52.630;4.896;2023-02-03T08:40:10;103055.84;;;8.84;83.71
46942;BME280;32676;52.630;4.896;2023-02-03T08:42:37;103038.19;;;8.68;83.48
46942;BME280;32676;52.630;4.896;2023-02-03T08:45:04;103081.25;;;8.90;83.60
46942;BME280;32676;52.630;4.896;2023-02-03T08:47:31;103093.50;;;8.93;83.50
46942;BME280;32676;52.630;4.896;2023-02-03T08:49:57;103094.38;;;8.93;83.38
46942;BME280;32676;52.630;4.896;2023-02-03T08:52:24;103090.88;;;8.93;83.52
46942;BME280;32676;52.630;4.896;2023-02-03T08:54:52;103105.78;;;8.95;83.33
46942;BME280;32676;52.630;4.896;2023-02-03T08:57:18;103117.19;;;8.99;83.41
46942;BME280;32676;52.630;4.896;2023-02-03T08:59:45;103113.66;;;8.97;83.45
46942;BME280;32676;52.630;4.896;2023-02-03T09:02:14;103122.44;;;9.02;83.31
46942;BME280;32676;52.630;4.896;2023-02-03T09:04:41;103131.19;;;9.01;83.39
46942;BME280;32676;52.630;4.896;2023-02-03T09:07:08;103126.81;;;9.01;83.37
46942;BME280;32676;52.630;4.896;2023-02-03T09:09:35;103120.66;;;8.98;83.11
46942;BME280;32676;52.630;4.896;2023-02-03T09:12:04;103137.34;;;9.05;83.24
46942;BME280;32676;52.630;4.896;2023-02-03T09:14:32;103135.56;;;9.03;83.21
46942;BME280;32676;52.630;4.896;2023-02-03T09:16:59;103152.22;;;9.07;83.24
46942;BME280;32676;52.630;4.896;2023-02-03T09:19:25;103160.09;;;9.09;83.08
46942;BME280;32676;52.630;4.896;2023-02-03T09:21:52;103150.44;;;9.05;83.21
46942;BME280;32676;52.630;4.896;2023-02-03T09:24:18;103164.50;;;9.11;83.23
46942;BME280;32676;52.630;4.896;2023-02-03T09:26:46;103165.41;;;9.12;82.94
46942;BME280;32676;52.630;4.896;2023-02-03T09:29:14;103173.28;;;9.13;82.97
46942;BME280;32676;52.630;4.896;2023-02-03T09:31:41;103174.16;;;9.14;82.94
46942;BME280;32676;52.630;4.896;2023-02-03T09:34:07;103174.97;;;9.08;82.98
46942;BME280;32676;52.630;4.896;2023-02-03T09:36:34;103187.31;;;9.15;83.06
46942;BME280;32676;52.630;4.896;2023-02-03T09:39:01;103199.56;;;9.18;82.91
46942;BME280;32676;52.630;4.896;2023-02-03T09:41:39;103198.72;;;9.19;82.97
46942;BME280;32676;52.630;4.896;2023-02-03T09:44:14;103208.34;;;9.21;83.05
46942;BME280;32676;52.630;4.896;2023-02-03T09:46:45;103210.13;;;9.22;82.84
46942;BME280;32676;52.630;4.896;2023-02-03T09:49:16;103217.09;;;9.23;82.76
46942;BME280;32676;52.630;4.896;2023-02-03T09:51:48;103219.75;;;9.25;82.99
46942;BME280;32676;52.630;4.896;2023-02-03T09:54:20;103221.50;;;9.25;82.98
46942;BME280;32676;52.630;4.896;2023-02-03T09:56:49;103225.88;;;9.26;82.98
46942;BME280;32676;52.630;4.896;2023-02-03T09:59:21;103231.16;;;9.27;82.84
46942;BME280;32676;52.630;4.896;2023-02-03T10:01:54;103229.38;;;9.25;82.82
46942;BME280;32676;52.630;4.896;2023-02-03T10:04:27;103245.19;;;9.32;83.00
46942;BME280;32676;52.630;4.896;2023-02-03T10:07:03;103251.31;;;9.33;82.90
46942;BME280;32676;52.630;4.896;2023-02-03T10:09:42;103253.94;;;9.33;82.92
46942;BME280;32676;52.630;4.896;2023-02-03T10:12:43;103253.94;;;9.33;82.94
46942;BME280;32676;52.630;4.896;2023-02-03T10:15:37;103259.25;;;9.36;82.87
46942;BME280;32676;52.630;4.896;2023-02-03T10:18:08;103271.50;;;9.37;82.88
46942;BME280;32676;52.630;4.896;2023-02-03T10:20:39;103275.84;;;9.33;82.93
46942;BME280;32676;52.630;4.896;2023-02-03T10:23:13;103277.66;;;9.39;82.89
46942;BME280;32676;52.630;4.896;2023-02-03T10:25:43;103280.28;;;9.39;82.79
46942;BME280;32676;52.630;4.896;2023-02-03T10:28:15;103282.91;;;9.39;82.87
46942;BME280;32676;52.630;4.896;2023-02-03T10:30:47;103283.81;;;9.41;82.80
46942;BME280;32676;52.630;4.896;2023-02-03T10:33:15;103290.78;;;9.42;82.73
46942;BME280;32676;52.630;4.896;2023-02-03T10:35:48;103282.03;;;9.40;82.65
46942;BME280;32676;52.630;4.896;2023-02-03T10:38:22;103279.38;;;9.38;82.82
46942;BME280;32676;52.630;4.896;2023-02-03T10:40:52;103265.34;;;9.35;82.78
46942;BME280;32676;52.630;4.896;2023-02-03T10:43:18;103269.78;;;9.39;83.10
46942;BME280;32676;52.630;4.896;2023-02-03T10:46:04;103275.03;;;9.39;82.91
46942;BME280;32676;52.630;4.896;2023-02-03T10:48:30;103261.88;;;9.36;83.07
46942;BME280;32676;52.630;4.896;2023-02-03T10:50:57;103275.88;;;9.38;82.99
46942;BME280;32676;52.630;4.896;2023-02-03T10:53:25;103268.00;;;9.38;83.03
46942;BME280;32676;52.630;4.896;2023-02-03T10:56:02;103275.88;;;9.38;82.95
46942;BME280;32676;52.630;4.896;2023-02-03T10:58:31;103268.00;;;9.38;82.94
46942;BME280;32676;52.630;4.896;2023-02-03T11:01:07;103257.47;;;9.35;83.09
46942;BME280;32676;52.630;4.896;2023-02-03T11:03:34;103227.53;;;9.17;83.04
46942;BME280;32676;52.630;4.896;2023-02-03T11:06:07;103263.63;;;9.37;83.17
46942;BME280;32676;52.630;4.896;2023-02-03T11:08:37;103260.13;;;9.36;83.33
46942;BME280;32676;52.630;4.896;2023-02-03T11:11:06;103273.25;;;9.38;83.21
46942;BME280;32676;52.630;4.896;2023-02-03T11:13:33;103274.16;;;9.40;83.12
46942;BME280;32676;52.630;4.896;2023-02-03T11:16:02;103273.25;;;9.38;83.18
46942;BME280;32676;52.630;4.896;2023-02-03T11:18:40;103275.88;;;9.38;83.29
46942;BME280;32676;52.630;4.896;2023-02-03T11:21:09;103262.72;;;9.35;83.46
46942;BME280;32676;52.630;4.896;2023-02-03T11:23:37;103275.03;;;9.39;83.32
46942;BME280;32676;52.630;4.896;2023-02-03T11:26:11;103281.16;;;9.39;83.41
46942;BME280;32676;52.630;4.896;2023-02-03T11:28:42;103279.38;;;9.38;83.53
46942;BME280;32676;52.630;4.896;2023-02-03T11:31:19;103283.81;;;9.41;83.59
46942;BME280;32676;52.630;4.896;2023-02-03T11:33:51;103291.69;;;9.43;83.18
46942;BME280;32676;52.630;4.896;2023-02-03T11:36:19;103305.75;;;9.46;83.55
46942;BME280;32676;52.630;4.896;2023-02-03T11:38:46;103318.88;;;9.49;83.56
46942;BME280;32676;52.630;4.896;2023-02-03T11:41:15;103330.28;;;9.53;83.66
46942;BME280;32676;52.630;4.896;2023-02-03T11:43:42;103332.94;;;9.54;83.49
46942;BME280;32676;52.630;4.896;2023-02-03T11:46:08;103345.22;;;9.55;83.36
46942;BME280;32676;52.630;4.896;2023-02-03T11:48:36;103348.75;;;9.57;83.40
46942;BME280;32676;52.630;4.896;2023-02-03T11:51:16;103350.47;;;9.55;83.18
46942;BME280;32676;52.630;4.896;2023-02-03T11:53:58;103362.75;;;9.59;83.16
46942;BME280;32676;52.630;4.896;2023-02-03T11:56:31;103379.44;;;9.63;82.95
46942;BME280;32676;52.630;4.896;2023-02-03T11:59:13;103368.00;;;9.59;82.98
46942;BME280;32676;52.630;4.896;2023-02-03T12:02:16;103377.72;;;9.65;82.93
46942;BME280;32676;52.630;4.896;2023-02-03T12:04:58;103388.22;;;9.67;82.68
46942;BME280;32676;52.630;4.896;2023-02-03T12:07:51;103396.97;;;9.67;82.53
46942;BME280;32676;52.630;4.896;2023-02-03T12:10:32;103412.84;;;9.73;82.25
46942;BME280;32676;52.630;4.896;2023-02-03T12:13:09;103411.94;;;9.73;82.15
46942;BME280;32676;52.630;4.896;2023-02-03T12:15:52;103414.56;;;9.73;81.77
46942;BME280;32676;52.630;4.896;2023-02-03T12:18:32;103419.84;;;9.76;81.73
46942;BME280;32676;52.630;4.896;2023-02-03T12:21:24;103420.69;;;9.75;81.36
46942;BME280;32676;52.630;4.896;2023-02-03T12:24:03;103436.50;;;9.78;81.00
46942;BME280;32676;52.630;4.896;2023-02-03T12:26:39;103441.75;;;9.78;80.47
46942;BME280;32676;52.630;4.896;2023-02-03T12:29:11;103431.25;;;9.78;80.21
46942;BME280;32676;52.630;4.896;2023-02-03T12:31:43;103437.38;;;9.78;80.10
46942;BME280;32676;52.630;4.896;2023-02-03T12:34:16;103424.25;;;9.77;80.20
46942;BME280;32676;52.630;4.896;2023-02-03T12:36:46;103407.59;;;9.73;80.14
46942;BME280;32676;52.630;4.896;2023-02-03T12:39:19;103397.00;;;9.69;80.19
46942;BME280;32676;52.630;4.896;2023-02-03T12:41:51;103376.84;;;9.65;80.26
46942;BME280;32676;52.630;4.896;2023-02-03T12:44:23;103372.47;;;9.65;80.14
46942;BME280;32676;52.630;4.896;2023-02-03T12:46:56;103355.78;;;9.61;80.05
46942;BME280;32676;52.630;4.896;2023-02-03T12:49:33;103352.25;;;9.59;80.19
46942;BME280;32676;52.630;4.896;2023-02-03T12:52:05;103350.47;;;9.58;79.85
46942;BME280;32676;52.630;4.896;2023-02-03T12:54:42;103339.97;;;9.58;79.62
46942;BME280;32676;52.630;4.896;2023-02-03T12:57:17;103332.94;;;9.54;79.53
46942;BME280;32676;52.630;4.896;2023-02-03T12:59:53;103332.94;;;9.54;79.48
46942;BME280;32676;52.630;4.896;2023-02-03T13:02:26;103324.16;;;9.52;79.42
46942;BME280;32676;52.630;4.896;2023-02-03T13:04:56;103321.53;;;9.52;79.49
46942;BME280;32676;52.630;4.896;2023-02-03T13:07:30;103304.00;;;9.48;79.38
46942;BME280;32676;52.630;4.896;2023-02-03T13:10:02;103283.84;;;9.44;79.42
46942;BME280;32676;52.630;4.896;2023-02-03T13:12:33;103274.19;;;9.41;79.69
46942;BME280;32676;52.630;4.896;2023-02-03T13:15:09;103275.94;;;9.43;80.10